Time;durP1;ratioP1;P1;durP2;ratioP2;P2;SDS_P1;SDS_P2;PMS_P1;PMS_P2;Temp;Humidity;BMP_temperature;BMP_pressure;BME280_temperature;BME280_humidity;BME280_pressure;Samples;Min_cycle;Max_cycle;Signal;HPM_P1;HPM_P2
2022/01/08 00:01:33;;;;;;;8.27;3.15;;;7.80;76.80;;;;;;5047118;28;20029;-72
2022/01/08 00:03:59;;;;;;;7.70;3.30;;;7.90;77.20;;;;;;5049250;28;20104;-72
2022/01/08 00:06:25;;;;;;;6.97;3.35;;;8.00;77.50;;;;;;5048480;28;20040;-72
2022/01/08 00:08:50;;;;;;;7.28;2.65;;;7.80;78.00;;;;;;5047107;28;20021;-73
2022/01/08 00:11:20;;;;;;;7.15;3.10;;;7.80;77.90;;;;;;5047362;28;20447;-72
2022/01/08 00:13:47;;;;;;;7.03;3.15;;;7.90;76.90;;;;;;5046924;28;20059;-72
2022/01/08 00:16:12;;;;;;;8.77;3.42;;;7.90;76.30;;;;;;5048550;28;20128;-72
2022/01/08 00:18:38;;;;;;;7.30;3.47;;;7.90;76.60;;;;;;5049101;28;20104;-72
2022/01/08 00:21:04;;;;;;;8.00;3.25;;;8.00;76.50;;;;;;5047150;28;20057;-72
2022/01/08 00:23:30;;;;;;;6.13;2.90;;;8.00;75.50;;;;;;5047080;28;20079;-72
2022/01/08 00:25:58;;;;;;;8.63;3.53;;;7.90;75.90;;;;;;5046935;28;20108;-72
2022/01/08 00:28:27;;;;;;;7.72;3.10;;;7.80;76.00;;;;;;5046740;28;20025;-72
2022/01/08 00:30:53;;;;;;;7.28;3.20;;;7.90;76.00;;;;;;5050153;28;20040;-73
2022/01/08 00:33:20;;;;;;;7.00;2.85;;;7.90;76.20;;;;;;5049442;28;20017;-72
2022/01/08 00:35:46;;;;;;;7.75;3.30;;;8.00;76.30;;;;;;5047489;28;20488;-72
2022/01/08 00:38:13;;;;;;;8.80;4.30;;;8.00;75.90;;;;;;5047155;28;20036;-72
2022/01/08 00:40:39;;;;;;;8.80;4.28;;;8.00;78.50;;;;;;5047318;28;20048;-72
2022/01/08 00:43:04;;;;;;;10.27;4.80;;;7.90;78.70;;;;;;5049008;28;20468;-72
2022/01/08 00:45:30;;;;;;;9.80;4.63;;;7.80;79.10;;;;;;5048293;28;20041;-72
2022/01/08 00:47:56;;;;;;;6.63;2.80;;;7.80;80.30;;;;;;5047460;28;20032;-72
2022/01/08 00:50:22;;;;;;;7.35;3.22;;;7.80;79.20;;;;;;5048014;28;20130;-72
2022/01/08 00:52:48;;;;;;;5.90;2.90;;;7.80;78.90;;;;;;5050835;28;20028;-72
2022/01/08 00:55:14;;;;;;;5.75;2.63;;;7.90;79.30;;;;;;5052041;28;20166;-72
2022/01/08 00:57:40;;;;;;;8.13;3.70;;;8.00;79.40;;;;;;5052827;28;20036;-72
2022/01/08 01:00:12;;;;;;;7.15;4.00;;;8.10;79.10;;;;;;5050752;28;20049;-72
2022/01/08 01:02:38;;;;;;;8.55;3.95;;;8.20;79.30;;;;;;5051391;28;20047;-72
2022/01/08 01:05:05;;;;;;;9.25;3.67;;;8.30;79.60;;;;;;5052651;28;20033;-72
2022/01/08 01:07:31;;;;;;;6.63;3.88;;;8.30;79.60;;;;;;5060599;28;20055;-72
2022/01/08 01:09:57;;;;;;;10.32;3.88;;;8.40;80.10;;;;;;5053879;28;20104;-72
2022/01/08 01:12:22;;;;;;;5.78;3.40;;;8.40;80.30;;;;;;5052115;28;20066;-72
2022/01/08 01:14:48;;;;;;;7.93;3.00;;;8.30;81.10;;;;;;5052058;28;20039;-71
2022/01/08 01:17:14;;;;;;;7.13;3.40;;;8.30;81.80;;;;;;5051906;28;20025;-72
2022/01/08 01:19:40;;;;;;;12.68;3.50;;;8.40;82.10;;;;;;5050991;28;20032;-72
2022/01/08 01:22:06;;;;;;;7.50;3.28;;;8.40;81.80;;;;;;5053452;28;20360;-72
2022/01/08 01:24:33;;;;;;;5.78;3.25;;;8.40;82.50;;;;;;5050263;28;20029;-73
2022/01/08 01:48:20;;;;;;;6.55;2.72;;;8.40;86.80;;;;;;5050930;28;20032;-72
2022/01/08 01:50:47;;;;;;;6.35;2.75;;;8.40;87.30;;;;;;5049791;28;20427;-72
2022/01/08 01:53:13;;;;;;;10.43;3.60;;;8.40;87.50;;;;;;5051789;28;20454;-72
2022/01/08 01:55:40;;;;;;;10.43;4.00;;;8.40;87.90;;;;;;5052315;28;20017;-72
2022/01/08 01:58:06;;;;;;;9.48;3.00;;;8.40;88.30;;;;;;5051939;28;20495;-72
2022/01/08 02:00:33;;;;;;;8.60;3.33;;;8.30;89.10;;;;;;5052653;28;20052;-72
2022/01/08 02:02:59;;;;;;;8.52;2.72;;;8.30;90.00;;;;;;5051193;28;20078;-72
2022/01/08 02:05:26;;;;;;;10.95;4.07;;;8.20;90.30;;;;;;5051534;28;20045;-72
2022/01/08 02:07:55;;;;;;;7.90;3.05;;;8.30;90.70;;;;;;5051596;28;20493;-72
2022/01/08 02:10:21;;;;;;;7.20;2.53;;;8.40;90.90;;;;;;5051207;28;20653;-72
2022/01/08 02:12:47;;;;;;;7.35;2.88;;;8.40;91.00;;;;;;5052727;28;20031;-72
2022/01/08 02:15:12;;;;;;;6.15;2.65;;;8.50;91.30;;;;;;5051466;28;20103;-72
2022/01/08 02:17:38;;;;;;;9.15;2.88;;;8.60;91.60;;;;;;5051725;28;20033;-72
2022/01/08 02:20:06;;;;;;;6.95;2.10;;;8.60;91.60;;;;;;5050122;28;20032;-72
2022/01/08 02:22:31;;;;;;;6.53;2.08;;;8.70;91.70;;;;;;5051764;28;20028;-72
2022/01/08 02:24:57;;;;;;;6.32;2.15;;;8.70;91.80;;;;;;5051994;28;20402;-72
2022/01/08 02:27:23;;;;;;;6.68;2.00;;;8.70;92.00;;;;;;5051999;28;20031;-72
2022/01/08 02:29:50;;;;;;;4.05;1.73;;;8.80;92.10;;;;;;5051340;28;20029;-72
2022/01/08 02:32:19;;;;;;;5.35;2.10;;;8.80;92.20;;;;;;5051016;28;20492;-72
2022/01/08 02:34:47;;;;;;;5.78;2.40;;;8.80;92.10;;;;;;5051159;28;20088;-72
2022/01/08 02:37:18;;;;;;;6.82;2.30;;;8.70;91.90;;;;;;5051447;28;20037;-72
2022/01/08 02:39:48;;;;;;;5.85;2.33;;;8.60;91.70;;;;;;5051740;28;20505;-72
2022/01/08 02:42:16;;;;;;;7.68;3.00;;;8.50;92.10;;;;;;5049210;28;20082;-72
2022/01/08 02:44:43;;;;;;;5.65;2.88;;;8.50;92.40;;;;;;5050974;28;20135;-73
2022/01/08 02:47:09;;;;;;;8.43;2.88;;;8.40;92.50;;;;;;5050639;28;20044;-73
2022/01/08 02:49:36;;;;;;;9.20;3.20;;;8.40;92.70;;;;;;5050983;28;20492;-72
2022/01/08 02:52:04;;;;;;;4.88;2.58;;;8.40;92.80;;;;;;5049872;28;20491;-72
2022/01/08 02:54:30;;;;;;;10.20;4.05;;;8.30;93.00;;;;;;5051305;28;20162;-72
2022/01/08 02:56:55;;;;;;;8.55;4.30;;;8.20;92.80;;;;;;5051162;28;20099;-72
2022/01/08 02:59:21;;;;;;;9.63;4.90;;;8.00;92.70;;;;;;5050317;28;20045;-72
2022/01/08 03:01:47;;;;;;;8.88;4.95;;;8.00;92.50;;;;;;5050822;28;20025;-72
2022/01/08 03:04:13;;;;;;;8.73;4.88;;;8.00;92.20;;;;;;5050299;28;20534;-72
2022/01/08 03:06:39;;;;;;;11.18;5.20;;;8.00;92.10;;;;;;5051654;28;20029;-72
2022/01/08 03:09:06;;;;;;;11.07;5.30;;;7.90;92.30;;;;;;5050206;28;20017;-72
2022/01/08 03:11:32;;;;;;;9.73;5.25;;;7.90;92.60;;;;;;5050021;28;20029;-72
2022/01/08 03:13:57;;;;;;;9.75;4.47;;;7.90;92.70;;;;;;5049325;28;20143;-72
2022/01/08 03:16:23;;;;;;;7.22;3.80;;;7.90;93.10;;;;;;5050513;28;20455;-72
2022/01/08 03:18:50;;;;;;;6.97;3.75;;;8.00;93.40;;;;;;5047420;28;20067;-72
2022/01/08 03:21:19;;;;;;;9.90;3.92;;;8.00;93.60;;;;;;5049599;28;20115;-72
2022/01/08 03:23:55;;;;;;;8.07;3.50;;;8.10;93.60;;;;;;5049464;28;20029;-72
2022/01/08 03:26:24;;;;;;;7.63;3.60;;;8.00;93.60;;;;;;5049711;28;20041;-72
2022/01/08 03:28:51;;;;;;;6.93;2.67;;;8.10;93.80;;;;;;5050268;28;20021;-73
2022/01/08 03:31:17;;;;;;;6.35;2.67;;;8.10;94.30;;;;;;5047813;28;20036;-72
2022/01/08 03:33:43;;;;;;;5.63;2.67;;;8.20;94.40;;;;;;5051682;28;20017;-72
2022/01/08 03:36:10;;;;;;;4.97;2.53;;;8.20;94.40;;;;;;5049523;28;20083;-73
2022/01/08 03:38:36;;;;;;;4.78;2.10;;;8.30;94.40;;;;;;5051867;28;20491;-72
2022/01/08 03:41:02;;;;;;;4.70;2.00;;;8.30;94.60;;;;;;5054298;28;20067;-73
2022/01/08 03:43:28;;;;;;;4.85;2.08;;;8.40;94.70;;;;;;5049212;28;20056;-73
2022/01/08 03:45:54;;;;;;;5.20;1.55;;;8.40;94.70;;;;;;5050966;28;20572;-73
2022/01/08 03:48:31;;;;;;;4.22;1.55;;;8.40;95.00;;;;;;5049611;28;20025;-72
2022/01/08 03:50:58;;;;;;;4.28;1.83;;;8.40;95.10;;;;;;5048783;28;20036;-73
2022/01/08 03:53:26;;;;;;;2.70;1.40;;;8.40;95.10;;;;;;5048758;28;20017;-72
2022/01/08 03:55:52;;;;;;;5.30;1.80;;;8.50;95.10;;;;;;5048919;28;20033;-72
2022/01/08 03:58:19;;;;;;;6.38;1.75;;;8.50;95.10;;;;;;5048770;28;20044;-72
2022/01/08 04:00:47;;;;;;;8.63;3.65;;;8.60;95.20;;;;;;5050950;28;20040;-72
2022/01/08 04:03:13;;;;;;;10.05;4.05;;;8.60;95.00;;;;;;5048757;28;20491;-72
2022/01/08 04:05:38;;;;;;;3.50;1.50;;;8.60;95.00;;;;;;5048252;28;20033;-72
2022/01/08 04:08:04;;;;;;;2.08;1.17;;;8.60;95.00;;;;;;5048591;28;20029;-73
2022/01/08 04:10:30;;;;;;;1.88;1.23;;;8.50;95.10;;;;;;5048067;28;20021;-72
2022/01/08 04:13:01;;;;;;;2.13;1.15;;;8.50;95.20;;;;;;5050754;28;20097;-73
2022/01/08 04:17:54;;;;;;;2.35;1.05;;;8.50;95.30;;;;;;5048469;28;20365;-72
2022/01/08 04:20:21;;;;;;;1.63;1.00;;;8.50;95.50;;;;;;5048301;28;20036;-72
2022/01/08 04:22:50;;;;;;;2.42;1.00;;;8.50;95.60;;;;;;5048834;28;20053;-72
2022/01/08 04:25:18;;;;;;;1.58;1.10;;;8.50;95.70;;;;;;5049204;28;20119;-72
2022/01/08 04:27:44;;;;;;;2.78;1.10;;;8.40;96.10;;;;;;5053183;28;20021;-72
2022/01/08 04:30:10;;;;;;;4.03;1.40;;;8.40;96.10;;;;;;5051802;28;20075;-73
2022/01/08 04:32:36;;;;;;;2.88;1.10;;;8.40;96.20;;;;;;5051520;28;20013;-72
2022/01/08 04:35:02;;;;;;;1.52;1.08;;;8.40;96.40;;;;;;5051539;28;20025;-72
2022/01/08 04:37:28;;;;;;;2.70;1.10;;;8.40;96.40;;;;;;5051320;28;20542;-72
2022/01/08 04:39:54;;;;;;;1.60;1.10;;;8.40;96.40;;;;;;5054435;28;20091;-73
2022/01/08 04:42:19;;;;;;;1.75;1.08;;;8.40;96.50;;;;;;5052960;28;20070;-72
2022/01/08 04:44:45;;;;;;;1.75;1.10;;;8.30;96.70;;;;;;5051152;28;20025;-72
2022/01/08 04:47:11;;;;;;;2.50;1.00;;;8.30;96.80;;;;;;5051271;28;20029;-72
2022/01/08 04:49:37;;;;;;;2.38;1.25;;;8.20;96.80;;;;;;5050753;28;20021;-73
2022/01/08 04:52:03;;;;;;;3.05;1.50;;;8.20;97.20;;;;;;5053030;28;20025;-72
2022/01/08 04:54:28;;;;;;;2.55;1.35;;;8.20;97.40;;;;;;5060634;28;20016;-72
2022/01/08 04:56:54;;;;;;;2.72;1.35;;;8.10;97.40;;;;;;5050687;28;20510;-72
2022/01/08 04:59:20;;;;;;;2.75;1.50;;;8.10;97.40;;;;;;5050657;28;20107;-72
2022/01/08 05:01:46;;;;;;;3.15;1.40;;;8.10;97.50;;;;;;5050870;28;20114;-72
2022/01/08 05:04:12;;;;;;;2.10;1.13;;;8.10;97.70;;;;;;5052075;28;20523;-72
2022/01/08 05:06:38;;;;;;;3.03;1.33;;;8.00;97.90;;;;;;5052721;28;20083;-72
2022/01/08 05:09:04;;;;;;;2.60;1.35;;;8.00;98.20;;;;;;5051006;28;20075;-72
2022/01/08 05:11:31;;;;;;;4.00;1.70;;;8.00;98.30;;;;;;5050328;28;20024;-72
2022/01/08 05:13:57;;;;;;;4.35;1.58;;;7.90;98.50;;;;;;5050950;28;20017;-72
2022/01/08 05:16:25;;;;;;;2.80;1.50;;;7.90;98.30;;;;;;5047293;28;20025;-72
2022/01/08 05:18:53;;;;;;;3.60;1.58;;;7.90;98.50;;;;;;5052656;28;20096;-72
2022/01/08 05:21:29;;;;;;;3.65;1.95;;;7.80;98.90;;;;;;5050681;28;20040;-72
2022/01/08 05:23:56;;;;;;;3.90;2.00;;;7.90;98.90;;;;;;5047055;28;20055;-72
2022/01/08 05:26:25;;;;;;;4.20;1.90;;;7.90;99.00;;;;;;5050233;28;20044;-72
2022/01/08 05:28:51;;;;;;;4.07;1.83;;;8.00;99.10;;;;;;5050163;28;20062;-72
2022/01/08 05:31:22;;;;;;;3.20;1.67;;;8.10;99.00;;;;;;5051183;28;20037;-72
2022/01/08 05:33:49;;;;;;;4.60;2.70;;;8.10;98.70;;;;;;5052975;28;20025;-72
2022/01/08 05:36:14;;;;;;;6.15;3.25;;;8.10;98.50;;;;;;5049788;28;20036;-72
2022/01/08 05:38:40;;;;;;;4.90;2.70;;;8.00;98.60;;;;;;5049174;28;20021;-73
2022/01/08 05:41:06;;;;;;;3.97;2.60;;;8.00;99.00;;;;;;5050346;28;20017;-72
2022/01/08 05:43:32;;;;;;;4.20;2.38;;;8.00;99.50;;;;;;5049942;28;20115;-72
2022/01/08 05:45:58;;;;;;;4.18;2.05;;;8.00;99.40;;;;;;5052536;28;20080;-72
2022/01/08 05:48:24;;;;;;;4.82;2.30;;;8.00;99.50;;;;;;5050769;28;20045;-72
2022/01/08 05:50:50;;;;;;;5.40;1.77;;;8.00;99.80;;;;;;5048459;28;20497;-72
2022/01/08 05:53:17;;;;;;;4.30;1.60;;;8.10;99.90;;;;;;5049842;28;20151;-72
2022/01/08 05:55:44;;;;;;;4.95;1.92;;;8.00;99.90;;;;;;5049608;28;20026;-72
2022/01/08 05:58:09;;;;;;;5.03;2.70;;;8.10;99.90;;;;;;5052179;28;20044;-72
2022/01/08 06:00:35;;;;;;;4.70;2.30;;;8.10;99.90;;;;;;5050722;28;20597;-73
2022/01/08 06:03:01;;;;;;;5.07;2.30;;;8.00;99.90;;;;;;5049237;28;20028;-72
2022/01/08 06:05:26;;;;;;;5.65;2.45;;;8.00;99.90;;;;;;5049882;28;20388;-73
2022/01/08 06:07:52;;;;;;;5.03;2.30;;;8.00;99.90;;;;;;5049226;28;20049;-72
2022/01/08 06:10:19;;;;;;;5.10;2.00;;;7.90;99.90;;;;;;5057202;28;20084;-72
2022/01/08 06:12:45;;;;;;;3.83;1.52;;;8.00;99.90;;;;;;5052010;28;20029;-72
2022/01/08 06:15:11;;;;;;;4.45;1.73;;;8.00;99.90;;;;;;5049225;28;20095;-72
2022/01/08 06:17:37;;;;;;;3.28;1.63;;;8.00;99.90;;;;;;5049222;28;20021;-72
2022/01/08 06:20:04;;;;;;;2.53;1.30;;;8.00;99.90;;;;;;5049429;28;20024;-72
2022/01/08 06:22:29;;;;;;;3.92;1.65;;;8.00;99.90;;;;;;5049191;28;20029;-72
2022/01/08 06:24:55;;;;;;;3.28;1.65;;;8.00;99.90;;;;;;5052105;28;20036;-72
2022/01/08 06:27:21;;;;;;;5.00;2.08;;;8.00;99.90;;;;;;5049825;28;20033;-72
2022/01/08 06:29:46;;;;;;;3.80;1.73;;;8.00;99.90;;;;;;5048991;28;20055;-72
2022/01/08 06:32:14;;;;;;;2.58;1.50;;;8.00;99.90;;;;;;5048796;28;20033;-72
2022/01/08 06:34:40;;;;;;;2.63;1.38;;;7.90;99.90;;;;;;5048860;28;20028;-72
2022/01/08 06:37:06;;;;;;;2.13;1.10;;;8.00;99.90;;;;;;5051334;28;20514;-72
2022/01/08 06:39:32;;;;;;;4.07;1.52;;;7.90;99.90;;;;;;5050200;28;20032;-72
2022/01/08 06:41:57;;;;;;;1.70;1.17;;;7.90;99.90;;;;;;5048701;28;20024;-72
2022/01/08 06:44:23;;;;;;;3.08;1.15;;;7.90;99.90;;;;;;5048802;28;20609;-72
2022/01/08 06:46:49;;;;;;;2.30;1.13;;;7.80;99.90;;;;;;5052794;28;20036;-72
2022/01/08 06:49:14;;;;;;;2.03;1.27;;;7.80;99.90;;;;;;5050048;28;20040;-72
2022/01/08 06:51:40;;;;;;;2.83;1.27;;;7.80;99.90;;;;;;5050450;28;20401;-72
2022/01/08 06:54:06;;;;;;;2.78;1.45;;;7.80;99.90;;;;;;5049044;28;20025;-72
2022/01/08 06:56:32;;;;;;;3.63;1.33;;;7.70;99.90;;;;;;5048641;28;20060;-72
2022/01/08 06:58:57;;;;;;;3.70;1.30;;;7.70;99.90;;;;;;5048059;28;20043;-72
2022/01/08 07:01:23;;;;;;;3.40;1.42;;;7.70;99.90;;;;;;5048587;28;20025;-72
2022/01/08 07:03:50;;;;;;;2.83;1.30;;;7.70;99.90;;;;;;5051569;28;20040;-72
2022/01/08 07:06:15;;;;;;;2.85;1.70;;;7.70;99.90;;;;;;5048724;28;20048;-72
2022/01/08 07:08:41;;;;;;;2.90;1.65;;;7.60;99.90;;;;;;5048239;28;20029;-73
2022/01/08 07:11:07;;;;;;;4.95;2.85;;;7.60;99.90;;;;;;5040426;28;20040;-72
2022/01/08 07:13:33;;;;;;;5.38;2.20;;;7.60;99.90;;;;;;5048224;28;20025;-72
2022/01/08 07:15:58;;;;;;;7.65;2.88;;;7.60;99.90;;;;;;5051066;28;20503;-73
2022/01/08 07:18:24;;;;;;;6.20;2.92;;;7.70;99.90;;;;;;5048515;28;20466;-73
2022/01/08 07:20:50;;;;;;;6.47;3.38;;;7.70;99.90;;;;;;5049917;28;20372;-73
2022/01/08 07:23:15;;;;;;;6.60;3.42;;;7.70;99.90;;;;;;5047833;28;20083;-72
2022/01/08 07:25:41;;;;;;;8.93;4.60;;;7.70;99.90;;;;;;5055918;28;20049;-73
2022/01/08 07:28:07;;;;;;;9.82;3.90;;;7.60;99.90;;;;;;5050091;28;20104;-73
2022/01/08 07:30:32;;;;;;;3.95;1.98;;;7.60;99.90;;;;;;5048949;28;20040;-73
2022/01/08 07:32:58;;;;;;;4.75;1.98;;;7.60;99.90;;;;;;5047654;28;20450;-73
2022/01/08 07:35:24;;;;;;;1.92;1.13;;;7.70;99.90;;;;;;5047799;28;20032;-73
2022/01/08 07:37:52;;;;;;;3.72;1.60;;;8.00;99.90;;;;;;5047902;28;20020;-73
2022/01/08 07:40:19;;;;;;;7.07;2.97;;;8.10;99.90;;;;;;5048819;28;20084;-73
2022/01/08 07:42:45;;;;;;;9.18;4.10;;;8.20;99.90;;;;;;5050415;28;20029;-73
2022/01/08 07:45:12;;;;;;;7.38;3.78;;;8.10;99.90;;;;;;5047502;28;20041;-73
2022/01/08 07:47:38;;;;;;;7.97;3.50;;;8.10;99.90;;;;;;5047595;28;20403;-73
2022/01/08 07:50:05;;;;;;;7.60;3.28;;;8.00;99.90;;;;;;5048009;28;20029;-73
2022/01/08 07:52:31;;;;;;;8.65;3.83;;;8.10;99.90;;;;;;5047285;28;20029;-73
2022/01/08 07:54:56;;;;;;;8.15;3.35;;;8.20;99.90;;;;;;5050952;28;20025;-73
2022/01/08 07:57:22;;;;;;;8.07;3.33;;;8.30;99.90;;;;;;5048090;28;20507;-73
2022/01/08 07:59:48;;;;;;;7.72;3.20;;;8.30;99.90;;;;;;5046530;28;20052;-73
2022/01/08 08:02:14;;;;;;;7.95;3.38;;;8.30;99.90;;;;;;5048812;28;20048;-73
2022/01/08 08:04:39;;;;;;;6.50;3.45;;;8.30;99.90;;;;;;5047679;28;20033;-73
2022/01/08 08:07:05;;;;;;;8.15;3.53;;;8.20;99.90;;;;;;5049494;28;20048;-73
2022/01/08 08:09:31;;;;;;;8.85;3.80;;;8.20;99.90;;;;;;5048555;28;20056;-73
2022/01/08 08:11:57;;;;;;;11.10;4.43;;;8.10;99.90;;;;;;5047965;28;20488;-73
2022/01/08 08:14:23;;;;;;;8.30;4.10;;;8.20;99.90;;;;;;5047256;28;20021;-73
2022/01/08 08:16:49;;;;;;;11.68;4.63;;;8.20;99.90;;;;;;5047402;28;20032;-73
2022/01/08 08:19:16;;;;;;;9.07;3.92;;;8.30;99.90;;;;;;5048878;28;20515;-74
2022/01/08 08:21:42;;;;;;;7.00;3.17;;;8.40;99.90;;;;;;5049436;28;20048;-74
2022/01/08 08:24:07;;;;;;;8.60;2.92;;;8.30;99.90;;;;;;5048557;28;20503;-73
2022/01/08 08:26:35;;;;;;;6.88;2.70;;;8.50;99.90;;;;;;5046913;28;20120;-74
2022/01/08 08:29:01;;;;;;;6.22;2.78;;;8.70;99.90;;;;;;5047308;28;20048;-76
2022/01/08 08:31:27;;;;;;;5.72;2.90;;;9.20;99.90;;;;;;5047163;28;20033;-74
2022/01/08 08:33:53;;;;;;;5.90;2.75;;;9.90;99.90;;;;;;5050594;28;20016;-74
2022/01/08 08:36:19;;;;;;;5.35;2.40;;;11.80;98.00;;;;;;5045367;28;20512;-75
2022/01/08 08:38:44;;;;;;;6.03;2.65;;;14.00;90.20;;;;;;5034725;28;20040;-74
2022/01/08 08:41:11;;;;;;;9.27;3.00;;;15.80;78.50;;;;;;5044892;28;20033;-74
2022/01/08 08:43:36;;;;;;;7.18;2.95;;;17.00;70.40;;;;;;5046587;28;20132;-75
2022/01/08 08:46:03;;;;;;;7.18;2.38;;;18.10;65.50;;;;;;5046090;28;20112;-75
2022/01/08 08:48:28;;;;;;;4.57;2.13;;;18.70;62.10;;;;;;5043047;28;20436;-78
2022/01/08 08:50:54;;;;;;;4.38;1.90;;;18.90;60.50;;;;;;5042588;28;20029;-78
2022/01/08 08:53:20;;;;;;;4.75;2.15;;;19.10;59.40;;;;;;5042431;28;20082;-78
2022/01/08 08:55:47;;;;;;;5.97;2.75;;;18.20;60.50;;;;;;5043620;28;20045;-79
2022/01/08 08:58:14;;;;;;;5.55;2.80;;;17.60;62.50;;;;;;5044935;28;20786;-79
2022/01/08 09:00:41;;;;;;;6.40;2.90;;;16.70;64.60;;;;;;5042279;28;20080;-78
2022/01/08 09:03:08;;;;;;;5.82;2.90;;;15.60;68.90;;;;;;5046591;28;20025;-78
2022/01/08 09:05:33;;;;;;;4.35;2.05;;;14.80;72.60;;;;;;5046184;28;20037;-78
2022/01/08 09:07:59;;;;;;;3.60;2.03;;;14.40;74.00;;;;;;5046219;28;20029;-78
2022/01/08 09:10:25;;;;;;;5.25;2.90;;;13.80;75.90;;;;;;5046024;28;20056;-78
2022/01/08 09:12:53;;;;;;;5.35;2.80;;;13.50;78.50;;;;;;5047992;28;20068;-79
2022/01/08 09:15:24;;;;;;;6.95;3.88;;;13.20;79.80;;;;;;5049840;28;20040;-79
2022/01/08 09:17:52;;;;;;;8.77;4.85;;;13.20;80.60;;;;;;5048026;28;20992;-79
2022/01/08 09:20:18;;;;;;;9.65;4.95;;;13.10;82.10;;;;;;5055745;28;20057;-81
2022/01/08 09:22:44;;;;;;;9.05;5.55;;;13.00;82.00;;;;;;5048894;28;20044;-82
2022/01/08 09:25:11;;;;;;;6.75;3.63;;;13.10;82.80;;;;;;5048527;28;20076;-85
2022/01/08 09:27:36;;;;;;;6.07;3.13;;;13.00;81.00;;;;;;5048653;28;20025;-85
2022/01/08 09:30:05;;;;;;;6.32;2.97;;;12.80;79.70;;;;;;5045948;28;20032;-85
2022/01/08 09:32:30;;;;;;;5.25;2.80;;;12.80;79.70;;;;;;5045503;28;20063;-86
2022/01/08 09:34:56;;;;;;;5.32;2.80;;;12.80;78.90;;;;;;5045488;28;20488;-86
2022/01/08 09:37:22;;;;;;;6.80;3.03;;;12.70;78.80;;;;;;5048946;28;20043;-86
2022/01/08 09:39:48;;;;;;;7.93;3.30;;;12.70;78.90;;;;;;5045962;28;20108;-87
2022/01/08 09:42:14;;;;;;;7.72;3.00;;;12.70;79.80;;;;;;5046161;28;20117;-85
2022/01/08 09:44:43;;;;;;;7.45;3.10;;;12.80;78.70;;;;;;5039181;28;20038;-85
2022/01/08 09:47:09;;;;;;;6.38;2.80;;;12.80;78.20;;;;;;5045919;28;20068;-87
2022/01/08 09:49:35;;;;;;;6.97;2.47;;;12.80;77.20;;;;;;5049964;28;20115;-82
2022/01/08 09:52:03;;;;;;;4.90;1.92;;;12.80;76.80;;;;;;5048776;28;20036;-85
2022/01/08 09:54:30;;;;;;;6.47;2.40;;;12.90;76.40;;;;;;5057080;28;20399;-87
2022/01/08 09:56:56;;;;;;;4.70;1.88;;;13.00;75.60;;;;;;5052975;28;20021;-80
2022/01/08 09:59:22;;;;;;;5.88;2.30;;;13.00;75.50;;;;;;5051833;28;20055;-87
2022/01/08 10:01:59;;;;;;;6.35;2.33;;;13.10;76.30;;;;;;5051615;28;20024;-82
2022/01/08 10:04:33;;;;;;;7.45;2.05;;;13.10;75.50;;;;;;5050301;28;20074;-78
2022/01/08 10:07:17;;;;;;;;;;;13.10;75.80;;;;;;5049604;28;20087;-79
2022/01/08 10:10:04;;;;;;;3.63;1.73;;;13.10;74.30;;;;;;5046591;28;19912;-79
2022/01/08 10:12:40;;;;;;;5.55;2.33;;;13.00;73.70;;;;;;5051860;28;20117;-80
2022/01/08 10:17:50;;;;;;;4.90;2.17;;;13.10;74.00;;;;;;5047454;28;20103;-78
2022/01/08 10:20:30;;;;;;;5.30;2.10;;;13.20;74.00;;;;;;5051319;28;20123;-78
2022/01/08 10:23:19;;;;;;;9.20;2.97;;;13.30;74.30;;;;;;5050922;28;20040;-77
2022/01/08 10:26:06;;;;;;;7.50;2.72;;;13.30;73.80;;;;;;5044564;28;20028;-76
2022/01/08 10:28:49;;;;;;;6.47;2.40;;;13.30;73.70;;;;;;5050982;28;20025;-86
2022/01/08 10:31:21;;;;;;;7.28;2.72;;;13.30;73.80;;;;;;5051384;28;20021;-86
2022/01/08 10:33:53;;;;;;;7.75;3.65;;;13.30;74.10;;;;;;5051688;28;20021;-83
2022/01/08 10:36:28;;;;;;;6.88;3.00;;;13.40;73.90;;;;;;5051738;28;20475;-87
2022/01/08 10:38:57;;;;;;;4.40;2.08;;;13.50;73.80;;;;;;5051455;28;20061;-86
2022/01/08 10:41:25;;;;;;;6.30;2.38;;;13.50;72.60;;;;;;5050543;28;20436;-85
2022/01/08 10:44:20;;;;;;;3.25;1.70;;;13.50;72.80;;;;;;5051048;28;20025;-84
2022/01/08 10:46:52;;;;;;;3.42;1.67;;;13.60;72.70;;;;;;5035590;28;20558;-85
2022/01/08 10:49:34;;;;;;;5.07;1.75;;;13.70;72.30;;;;;;5050259;28;20418;-83
2022/01/08 10:52:14;;;;;;;4.40;1.92;;;13.80;72.30;;;;;;5045524;28;20013;-85
2022/01/08 10:55:02;;;;;;;6.35;2.10;;;13.90;72.10;;;;;;5050318;28;20110;-88
2022/01/08 10:57:32;;;;;;;6.05;1.92;;;14.00;72.00;;;;;;5052078;28;20029;-86
2022/01/08 10:59:58;;;;;;;4.30;1.80;;;14.00;71.90;;;;;;5050375;28;20068;-86
2022/01/08 11:02:28;;;;;;;4.90;1.80;;;14.10;72.00;;;;;;5050178;28;20028;-87
2022/01/08 11:04:54;;;;;;;4.93;1.90;;;14.20;71.00;;;;;;5050345;28;20045;-82
2022/01/08 11:07:25;;;;;;;6.25;1.90;;;14.10;71.60;;;;;;5050088;28;20029;-83
2022/01/08 11:10:04;;;;;;;4.35;1.60;;;14.10;72.40;;;;;;5052028;28;20063;-84
2022/01/08 11:12:41;;;;;;;4.85;2.00;;;14.00;72.10;;;;;;5049895;28;20025;-85
2022/01/08 11:15:49;;;;;;;5.60;2.22;;;14.00;72.00;;;;;;5051362;28;20032;-84
2022/01/08 11:18:18;;;;;;;5.82;2.00;;;14.10;71.80;;;;;;5048029;28;20463;-84
2022/01/08 11:20:46;;;;;;;5.65;2.05;;;14.20;71.50;;;;;;5043637;28;20098;-85
2022/01/08 11:23:14;;;;;;;5.72;1.58;;;14.30;71.40;;;;;;5049593;28;20438;-83
2022/01/08 11:25:44;;;;;;;3.75;1.60;;;14.40;71.40;;;;;;5049475;28;20492;-85
2022/01/08 11:28:15;;;;;;;3.92;1.50;;;14.60;71.70;;;;;;5050112;28;20021;-78
2022/01/08 11:30:44;;;;;;;4.68;1.50;;;14.60;70.90;;;;;;5049381;28;20071;-74
2022/01/08 11:33:29;;;;;;;3.80;1.63;;;14.70;71.00;;;;;;5047226;28;20502;-74
2022/01/08 11:35:56;;;;;;;4.07;1.60;;;14.90;70.70;;;;;;5042668;28;20035;-83
2022/01/08 11:38:23;;;;;;;4.07;1.52;;;15.10;70.00;;;;;;5048662;28;20094;-81
2022/01/08 11:40:51;;;;;;;5.78;1.90;;;15.10;69.80;;;;;;5047830;28;20068;-83
2022/01/08 11:43:20;;;;;;;3.50;1.33;;;15.20;69.70;;;;;;5049274;28;20037;-86
2022/01/08 11:45:47;;;;;;;5.53;1.60;;;15.40;69.00;;;;;;5050825;28;20037;-88
2022/01/08 11:48:14;;;;;;;5.57;1.77;;;15.50;68.30;;;;;;5048315;28;20036;-81
2022/01/08 11:50:48;;;;;;;3.50;1.50;;;15.40;68.60;;;;;;5051157;28;20033;-84
2022/01/08 11:53:16;;;;;;;5.22;1.77;;;15.60;69.20;;;;;;5052798;28;20041;-82
2022/01/08 11:55:45;;;;;;;7.05;1.80;;;15.70;68.50;;;;;;5050687;28;20044;-83
2022/01/08 11:58:32;;;;;;;3.28;1.50;;;15.80;68.30;;;;;;5050761;28;20037;-88
2022/01/08 12:01:12;;;;;;;3.10;1.30;;;16.00;67.30;;;;;;5046948;28;20045;-86
2022/01/08 12:03:49;;;;;;;3.17;1.20;;;16.00;66.60;;;;;;5049216;28;20032;-87
2022/01/08 12:06:39;;;;;;;3.35;1.45;;;16.20;67.00;;;;;;5047113;28;20037;-87
2022/01/08 12:09:16;;;;;;;5.30;1.30;;;16.30;67.20;;;;;;5044860;28;20041;-85
2022/01/08 12:11:41;;;;;;;7.03;2.72;;;16.40;66.50;;;;;;5047656;28;20447;-82
2022/01/08 12:14:12;;;;;;;6.38;2.47;;;16.60;65.30;;;;;;5047495;28;20044;-82
2022/01/08 12:16:43;;;;;;;5.65;2.00;;;16.60;66.00;;;;;;5046705;28;20025;-83
2022/01/08 12:19:25;;;;;;;5.47;2.30;;;16.70;65.90;;;;;;5048774;28;20438;-83
2022/01/08 12:21:51;;;;;;;3.42;1.63;;;16.90;65.50;;;;;;5049232;28;20399;-84
2022/01/08 12:24:26;;;;;;;3.45;1.25;;;17.10;64.50;;;;;;5048180;28;20029;-84
2022/01/08 12:27:02;;;;;;;5.63;1.90;;;17.20;64.60;;;;;;5049154;28;20051;-82
2022/01/08 12:29:35;;;;;;;5.38;1.90;;;17.50;65.00;;;;;;5047733;28;20021;-84
2022/01/08 12:32:26;;;;;;;6.13;1.95;;;18.10;62.80;;;;;;5050216;28;20028;-88
2022/01/08 12:35:01;;;;;;;3.83;1.52;;;20.00;61.00;;;;;;5050519;28;20029;-90
2022/01/08 12:37:40;;;;;;;4.90;1.30;;;22.40;56.80;;;;;;5053071;28;20025;-91
2022/01/08 12:40:10;;;;;;;3.35;1.40;;;24.50;51.90;;;;;;5049703;28;20492;-91
2022/01/08 12:42:37;;;;;;;3.22;1.40;;;25.90;49.00;;;;;;5050728;28;20029;-92
2022/01/08 12:45:32;;;;;;;3.85;1.25;;;26.70;47.50;;;;;;5051115;28;20025;-91
2022/01/08 12:48:01;;;;;;;3.88;1.40;;;26.90;46.30;;;;;;5035976;28;20468;-80
2022/01/08 12:50:31;;;;;;;4.05;1.40;;;27.10;45.60;;;;;;5051005;28;20032;-80
2022/01/08 12:53:06;;;;;;;2.00;0.90;;;26.60;44.40;;;;;;5042980;28;20071;-83
2022/01/08 12:55:32;;;;;;;2.60;1.13;;;24.60;47.00;;;;;;5048726;28;20117;-84
2022/01/08 12:57:58;;;;;;;2.70;1.30;;;23.90;49.20;;;;;;5052593;28;20039;-84
2022/01/08 13:00:25;;;;;;;4.32;1.63;;;25.10;48.30;;;;;;5051012;28;20415;-85
2022/01/08 13:02:51;;;;;;;4.47;1.60;;;26.50;45.60;;;;;;5050621;28;20029;-84
2022/01/08 13:05:18;;;;;;;3.80;1.23;;;27.90;44.70;;;;;;5051053;28;20043;-84
2022/01/08 13:07:51;;;;;;;3.97;1.20;;;28.40;43.10;;;;;;5058596;28;20030;-81
2022/01/08 13:10:18;;;;;;;2.95;1.10;;;27.10;44.10;;;;;;5051868;28;20086;-84
2022/01/08 13:13:04;;;;;;;4.10;1.35;;;29.10;43.30;;;;;;5053738;28;20017;-83
2022/01/08 13:15:31;;;;;;;4.38;1.27;;;30.60;41.60;;;;;;5053409;28;20029;-83
2022/01/08 13:18:16;;;;;;;4.28;1.30;;;31.60;41.00;;;;;;5049728;28;20033;-82
2022/01/08 13:20:42;;;;;;;2.53;1.30;;;31.80;39.50;;;;;;5051610;28;20103;-81
2022/01/08 13:23:11;;;;;;;5.72;1.58;;;32.40;39.10;;;;;;5050473;28;20115;-78
2022/01/08 13:25:37;;;;;;;3.65;1.40;;;32.50;38.50;;;;;;5050193;28;20041;-77